sensor_id;sensor_type;location;lat;lon;timestamp;P1;durP1;ratioP1;P2;durP2;ratioP2
20014;SDS011;61787;42.022;23.078;2023-03-31T00:00:42;3.47;;;1.97;;
20014;SDS011;61787;42.022;23.078;2023-03-31T00:01:44;3.77;;;2.00;;
20014;SDS011;61787;42.022;23.078;2023-03-31T00:02:46;4.77;;;2.00;;
20014;SDS011;61787;42.022;23.078;2023-03-31T00:03:47;3.10;;;2.00;;
20014;SDS011;61787;42.022;23.078;2023-03-31T00:04:49;4.37;;;2.10;;
20014;SDS011;61787;42.022;23.078;2023-03-31T00:05:55;2.90;;;2.23;;
20014;SDS011;61787;42.022;23.078;2023-03-31T00:06:58;3.10;;;2.23;;
20014;SDS011;61787;42.022;23.078;2023-03-31T00:08:00;6.37;;;2.50;;
20014;SDS011;61787;42.022;23.078;2023-03-31T00:09:02;4.73;;;1.77;;
20014;SDS011;61787;42.022;23.078;2023-03-31T00:10:05;3.33;;;2.07;;
20014;SDS011;61787;42.022;23.078;2023-03-31T00:11:17;3.20;;;2.10;;
20014;SDS011;61787;42.022;23.078;2023-03-31T00:12:20;2.03;;;1.80;;
20014;SDS011;61787;42.022;23.078;2023-03-31T00:13:22;4.50;;;2.20;;
20014;SDS011;61787;42.022;23.078;2023-03-31T00:14:23;5.53;;;2.13;;
20014;SDS011;61787;42.022;23.078;2023-03-31T00:15:25;2.30;;;2.00;;
20014;SDS011;61787;42.022;23.078;2023-03-31T00:16:27;3.70;;;1.90;;
20014;SDS011;61787;42.022;23.078;2023-03-31T00:17:29;4.17;;;2.33;;
20014;SDS011;61787;42.022;23.078;2023-03-31T00:18:33;4.23;;;1.90;;
20014;SDS011;61787;42.022;23.078;2023-03-31T00:19:35;3.37;;;1.90;;
20014;SDS011;61787;42.022;23.078;2023-03-31T00:20:37;2.77;;;1.73;;
20014;SDS011;61787;42.022;23.078;2023-03-31T00:21:39;3.33;;;2.10;;
20014;SDS011;61787;42.022;23.078;2023-03-31T00:22:43;4.17;;;2.20;;
20014;SDS011;61787;42.022;23.078;2023-03-31T00:23:47;4.10;;;2.50;;
20014;SDS011;61787;42.022;23.078;2023-03-31T00:24:48;2.73;;;1.90;;
20014;SDS011;61787;42.022;23.078;2023-03-31T00:25:50;4.57;;;2.23;;
20014;SDS011;61787;42.022;23.078;2023-03-31T00:26:52;2.47;;;1.63;;
20014;SDS011;61787;42.022;23.078;2023-03-31T00:27:53;2.73;;;2.03;;
20014;SDS011;61787;42.022;23.078;2023-03-31T00:28:55;3.43;;;2.03;;
20014;SDS011;61787;42.022;23.078;2023-03-31T00:29:57;2.33;;;1.70;;
20014;SDS011;61787;42.022;23.078;2023-03-31T00:31:00;5.23;;;1.83;;
20014;SDS011;61787;42.022;23.078;2023-03-31T00:32:02;4.13;;;1.70;;
20014;SDS011;61787;42.022;23.078;2023-03-31T00:33:04;1.90;;;1.60;;
20014;SDS011;61787;42.022;23.078;2023-03-31T00:34:06;4.30;;;2.10;;
20014;SDS011;61787;42.022;23.078;2023-03-31T00:35:08;3.03;;;1.93;;
20014;SDS011;61787;42.022;23.078;2023-03-31T00:36:10;3.97;;;2.10;;
20014;SDS011;61787;42.022;23.078;2023-03-31T00:37:11;4.13;;;2.00;;
20014;SDS011;61787;42.022;23.078;2023-03-31T00:38:15;4.87;;;1.80;;
20014;SDS011;61787;42.022;23.078;2023-03-31T00:39:17;4.53;;;2.03;;
20014;SDS011;61787;42.022;23.078;2023-03-31T00:40:19;4.87;;;2.10;;
20014;SDS011;61787;42.022;23.078;2023-03-31T00:41:21;3.50;;;1.93;;
20014;SDS011;61787;42.022;23.078;2023-03-31T00:42:22;3.07;;;1.70;;
20014;SDS011;61787;42.022;23.078;2023-03-31T00:43:34;2.93;;;2.00;;
20014;SDS011;61787;42.022;23.078;2023-03-31T00:46:32;3.83;;;2.27;;
20014;SDS011;61787;42.022;23.078;2023-03-31T00:47:41;5.40;;;2.30;;
20014;SDS011;61787;42.022;23.078;2023-03-31T00:48:48;4.30;;;2.10;;
20014;SDS011;61787;42.022;23.078;2023-03-31T00:49:53;2.43;;;1.73;;
20014;SDS011;61787;42.022;23.078;2023-03-31T00:50:58;3.43;;;1.80;;
20014;SDS011;61787;42.022;23.078;2023-03-31T00:52:09;4.13;;;2.10;;
20014;SDS011;61787;42.022;23.078;2023-03-31T00:53:16;5.23;;;2.23;;
20014;SDS011;61787;42.022;23.078;2023-03-31T00:54:22;3.37;;;1.97;;
20014;SDS011;61787;42.022;23.078;2023-03-31T00:55:28;2.90;;;1.73;;
20014;SDS011;61787;42.022;23.078;2023-03-31T00:56:35;4.70;;;2.33;;
20014;SDS011;61787;42.022;23.078;2023-03-31T00:57:40;5.50;;;2.40;;
20014;SDS011;61787;42.022;23.078;2023-03-31T00:58:46;3.13;;;2.17;;
20014;SDS011;61787;42.022;23.078;2023-03-31T00:59:54;5.17;;;2.00;;
20014;SDS011;61787;42.022;23.078;2023-03-31T01:00:59;4.40;;;1.60;;
20014;SDS011;61787;42.022;23.078;2023-03-31T01:02:03;3.73;;;1.90;;
20014;SDS011;61787;42.022;23.078;2023-03-31T01:03:06;3.37;;;2.07;;
20014;SDS011;61787;42.022;23.078;2023-03-31T01:04:10;2.90;;;1.90;;
20014;SDS011;61787;42.022;23.078;2023-03-31T01:05:17;2.53;;;1.70;;
20014;SDS011;61787;42.022;23.078;2023-03-31T01:06:22;5.00;;;1.77;;
20014;SDS011;61787;42.022;23.078;2023-03-31T01:07:26;4.67;;;2.10;;
20014;SDS011;61787;42.022;23.078;2023-03-31T01:08:34;3.53;;;2.10;;
20014;SDS011;61787;42.022;23.078;2023-03-31T01:09:38;2.97;;;1.73;;
20014;SDS011;61787;42.022;23.078;2023-03-31T01:10:40;3.63;;;2.33;;
20014;SDS011;61787;42.022;23.078;2023-03-31T01:11:46;3.23;;;2.20;;
20014;SDS011;61787;42.022;23.078;2023-03-31T01:12:51;3.20;;;1.93;;
20014;SDS011;61787;42.022;23.078;2023-03-31T01:13:55;2.27;;;1.80;;
20014;SDS011;61787;42.022;23.078;2023-03-31T01:14:57;4.70;;;2.13;;
20014;SDS011;61787;42.022;23.078;2023-03-31T01:16:00;3.80;;;1.90;;
20014;SDS011;61787;42.022;23.078;2023-03-31T01:17:01;2.93;;;1.97;;
20014;SDS011;61787;42.022;23.078;2023-03-31T01:18:05;2.67;;;2.00;;
20014;SDS011;61787;42.022;23.078;2023-03-31T01:19:09;4.30;;;2.20;;
20014;SDS011;61787;42.022;23.078;2023-03-31T01:23:20;2.57;;;2.03;;
20014;SDS011;61787;42.022;23.078;2023-03-31T01:24:46;2.53;;;1.90;;
20014;SDS011;61787;42.022;23.078;2023-03-31T01:33:02;4.47;;;1.90;;
20014;SDS011;61787;42.022;23.078;2023-03-31T01:39:10;2.83;;;1.90;;
20014;SDS011;61787;42.022;23.078;2023-03-31T01:40:21;2.53;;;1.87;;
20014;SDS011;61787;42.022;23.078;2023-03-31T01:41:28;4.60;;;2.03;;
20014;SDS011;61787;42.022;23.078;2023-03-31T01:42:51;4.57;;;2.00;;
20014;SDS011;61787;42.022;23.078;2023-03-31T01:45:50;3.77;;;2.17;;
20014;SDS011;61787;42.022;23.078;2023-03-31T01:47:15;3.07;;;2.00;;
20014;SDS011;61787;42.022;23.078;2023-03-31T01:51:01;2.60;;;1.87;;
20014;SDS011;61787;42.022;23.078;2023-03-31T01:52:13;2.63;;;1.80;;
20014;SDS011;61787;42.022;23.078;2023-03-31T01:54:47;1.93;;;1.70;;
20014;SDS011;61787;42.022;23.078;2023-03-31T01:58:24;3.30;;;1.90;;
20014;SDS011;61787;42.022;23.078;2023-03-31T02:02:32;3.23;;;2.03;;
20014;SDS011;61787;42.022;23.078;2023-03-31T02:03:40;3.50;;;2.10;;
20014;SDS011;61787;42.022;23.078;2023-03-31T02:04:49;4.73;;;2.00;;
20014;SDS011;61787;42.022;23.078;2023-03-31T02:06:17;2.27;;;1.80;;
20014;SDS011;61787;42.022;23.078;2023-03-31T02:07:31;2.87;;;1.80;;
20014;SDS011;61787;42.022;23.078;2023-03-31T02:08:45;4.20;;;1.73;;
20014;SDS011;61787;42.022;23.078;2023-03-31T02:09:55;5.40;;;2.20;;
20014;SDS011;61787;42.022;23.078;2023-03-31T02:10:59;2.90;;;1.87;;
20014;SDS011;61787;42.022;23.078;2023-03-31T02:12:02;6.27;;;1.80;;
20014;SDS011;61787;42.022;23.078;2023-03-31T02:13:08;4.07;;;1.90;;
20014;SDS011;61787;42.022;23.078;2023-03-31T02:14:15;4.17;;;2.00;;
20014;SDS011;61787;42.022;23.078;2023-03-31T02:15:29;7.90;;;2.07;;
20014;SDS011;61787;42.022;23.078;2023-03-31T02:16:37;7.67;;;2.40;;
20014;SDS011;61787;42.022;23.078;2023-03-31T02:17:52;4.13;;;2.20;;
20014;SDS011;61787;42.022;23.078;2023-03-31T02:18:57;4.20;;;2.37;;
20014;SDS011;61787;42.022;23.078;2023-03-31T02:20:04;4.87;;;2.53;;
20014;SDS011;61787;42.022;23.078;2023-03-31T02:21:11;3.30;;;2.40;;
20014;SDS011;61787;42.022;23.078;2023-03-31T02:22:14;5.00;;;2.30;;
20014;SDS011;61787;42.022;23.078;2023-03-31T02:23:21;3.73;;;2.17;;
20014;SDS011;61787;42.022;23.078;2023-03-31T02:24:26;4.20;;;2.13;;
20014;SDS011;61787;42.022;23.078;2023-03-31T02:25:35;3.90;;;2.53;;
20014;SDS011;61787;42.022;23.078;2023-03-31T02:26:43;3.10;;;2.10;;
20014;SDS011;61787;42.022;23.078;2023-03-31T02:27:52;4.70;;;2.23;;
20014;SDS011;61787;42.022;23.078;2023-03-31T02:28:57;3.80;;;2.47;;
20014;SDS011;61787;42.022;23.078;2023-03-31T02:29:59;3.77;;;1.93;;
20014;SDS011;61787;42.022;23.078;2023-03-31T02:32:37;2.53;;;1.70;;
20014;SDS011;61787;42.022;23.078;2023-03-31T02:33:41;5.93;;;2.23;;
20014;SDS011;61787;42.022;23.078;2023-03-31T02:34:43;5.67;;;2.00;;
20014;SDS011;61787;42.022;23.078;2023-03-31T02:35:44;3.27;;;1.70;;
20014;SDS011;61787;42.022;23.078;2023-03-31T02:36:46;3.30;;;2.17;;
20014;SDS011;61787;42.022;23.078;2023-03-31T02:37:49;4.37;;;2.00;;
20014;SDS011;61787;42.022;23.078;2023-03-31T02:38:55;2.50;;;2.00;;
20014;SDS011;61787;42.022;23.078;2023-03-31T02:40:04;3.27;;;2.10;;
20014;SDS011;61787;42.022;23.078;2023-03-31T02:41:10;3.73;;;2.00;;
20014;SDS011;61787;42.022;23.078;2023-03-31T02:42:12;5.33;;;2.20;;
20014;SDS011;61787;42.022;23.078;2023-03-31T02:43:14;4.40;;;2.03;;
20014;SDS011;61787;42.022;23.078;2023-03-31T02:44:16;6.00;;;2.10;;
20014;SDS011;61787;42.022;23.078;2023-03-31T02:46:35;4.40;;;2.17;;
20014;SDS011;61787;42.022;23.078;2023-03-31T02:47:38;4.50;;;1.80;;
20014;SDS011;61787;42.022;23.078;2023-03-31T02:48:40;3.90;;;2.20;;
20014;SDS011;61787;42.022;23.078;2023-03-31T02:49:51;5.63;;;2.53;;
20014;SDS011;61787;42.022;23.078;2023-03-31T02:55:19;5.70;;;2.43;;
20014;SDS011;61787;42.022;23.078;2023-03-31T02:57:55;3.27;;;2.13;;
20014;SDS011;61787;42.022;23.078;2023-03-31T03:05:47;4.50;;;2.10;;
20014;SDS011;61787;42.022;23.078;2023-03-31T03:07:29;4.37;;;2.50;;
20014;SDS011;61787;42.022;23.078;2023-03-31T03:11:46;4.50;;;2.20;;
20014;SDS011;61787;42.022;23.078;2023-03-31T03:16:24;3.43;;;2.20;;
20014;SDS011;61787;42.022;23.078;2023-03-31T03:17:42;3.77;;;2.23;;
20014;SDS011;61787;42.022;23.078;2023-03-31T03:20:00;4.70;;;2.10;;
20014;SDS011;61787;42.022;23.078;2023-03-31T03:21:02;3.90;;;2.57;;
20014;SDS011;61787;42.022;23.078;2023-03-31T03:22:04;5.10;;;2.33;;
20014;SDS011;61787;42.022;23.078;2023-03-31T03:23:09;4.40;;;2.40;;
20014;SDS011;61787;42.022;23.078;2023-03-31T03:24:10;2.53;;;2.10;;
20014;SDS011;61787;42.022;23.078;2023-03-31T03:25:13;3.33;;;2.50;;
20014;SDS011;61787;42.022;23.078;2023-03-31T03:26:17;3.57;;;2.43;;
20014;SDS011;61787;42.022;23.078;2023-03-31T03:27:21;5.90;;;2.70;;
20014;SDS011;61787;42.022;23.078;2023-03-31T03:28:23;4.70;;;2.80;;
20014;SDS011;61787;42.022;23.078;2023-03-31T03:29:24;3.60;;;2.30;;
20014;SDS011;61787;42.022;23.078;2023-03-31T03:30:27;3.47;;;2.30;;
20014;SDS011;61787;42.022;23.078;2023-03-31T03:31:28;6.57;;;2.60;;
20014;SDS011;61787;42.022;23.078;2023-03-31T03:32:31;4.30;;;2.40;;
20014;SDS011;61787;42.022;23.078;2023-03-31T03:33:34;4.40;;;2.50;;
20014;SDS011;61787;42.022;23.078;2023-03-31T03:34:35;5.20;;;2.77;;
20014;SDS011;61787;42.022;23.078;2023-03-31T03:35:37;4.70;;;2.77;;
20014;SDS011;61787;42.022;23.078;2023-03-31T03:36:39;3.17;;;2.47;;
20014;SDS011;61787;42.022;23.078;2023-03-31T03:37:40;3.93;;;2.70;;
20014;SDS011;61787;42.022;23.078;2023-03-31T03:38:42;4.90;;;2.67;;
20014;SDS011;61787;42.022;23.078;2023-03-31T03:39:44;5.13;;;2.60;;
20014;SDS011;61787;42.022;23.078;2023-03-31T03:40:45;5.40;;;2.50;;
20014;SDS011;61787;42.022;23.078;2023-03-31T03:41:50;5.30;;;2.60;;
20014;SDS011;61787;42.022;23.078;2023-03-31T03:42:51;4.47;;;2.30;;
20014;SDS011;61787;42.022;23.078;2023-03-31T03:43:53;3.57;;;2.60;;
20014;SDS011;61787;42.022;23.078;2023-03-31T03:44:54;5.03;;;2.67;;
20014;SDS011;61787;42.022;23.078;2023-03-31T03:45:56;4.17;;;2.73;;
20014;SDS011;61787;42.022;23.078;2023-03-31T03:46:58;3.67;;;2.43;;
20014;SDS011;61787;42.022;23.078;2023-03-31T03:47:59;5.70;;;2.70;;
20014;SDS011;61787;42.022;23.078;2023-03-31T03:49:01;3.97;;;2.83;;
20014;SDS011;61787;42.022;23.078;2023-03-31T03:50:03;3.37;;;2.17;;
20014;SDS011;61787;42.022;23.078;2023-03-31T03:51:05;4.83;;;2.73;;
20014;SDS011;61787;42.022;23.078;2023-03-31T03:52:07;2.73;;;2.30;;
20014;SDS011;61787;42.022;23.078;2023-03-31T03:53:09;4.30;;;2.47;;
20014;SDS011;61787;42.022;23.078;2023-03-31T03:54:10;2.63;;;2.33;;
20014;SDS011;61787;42.022;23.078;2023-03-31T03:55:12;5.40;;;2.90;;
20014;SDS011;61787;42.022;23.078;2023-03-31T03:56:14;3.70;;;2.73;;
20014;SDS011;61787;42.022;23.078;2023-03-31T03:57:16;5.20;;;2.47;;
20014;SDS011;61787;42.022;23.078;2023-03-31T03:58:18;5.17;;;2.80;;
20014;SDS011;61787;42.022;23.078;2023-03-31T03:59:20;5.13;;;2.90;;
20014;SDS011;61787;42.022;23.078;2023-03-31T04:00:21;5.80;;;3.43;;
20014;SDS011;61787;42.022;23.078;2023-03-31T04:01:23;3.60;;;2.87;;
20014;SDS011;61787;42.022;23.078;2023-03-31T04:02:24;3.90;;;3.07;;
20014;SDS011;61787;42.022;23.078;2023-03-31T04:03:29;4.30;;;3.00;;
20014;SDS011;61787;42.022;23.078;2023-03-31T04:04:31;6.10;;;3.13;;
20014;SDS011;61787;42.022;23.078;2023-03-31T04:05:32;9.83;;;4.17;;
20014;SDS011;61787;42.022;23.078;2023-03-31T04:06:34;6.03;;;4.40;;
20014;SDS011;61787;42.022;23.078;2023-03-31T04:07:36;11.00;;;6.53;;
20014;SDS011;61787;42.022;23.078;2023-03-31T04:08:37;11.47;;;6.20;;
20014;SDS011;61787;42.022;23.078;2023-03-31T04:09:39;14.07;;;7.10;;
20014;SDS011;61787;42.022;23.078;2023-03-31T04:10:44;14.37;;;6.97;;
20014;SDS011;61787;42.022;23.078;2023-03-31T04:11:49;10.77;;;5.37;;
20014;SDS011;61787;42.022;23.078;2023-03-31T04:12:50;9.83;;;5.10;;
20014;SDS011;61787;42.022;23.078;2023-03-31T04:13:52;9.20;;;4.77;;
20014;SDS011;61787;42.022;23.078;2023-03-31T04:14:53;7.77;;;4.77;;
20014;SDS011;61787;42.022;23.078;2023-03-31T04:15:55;5.93;;;4.00;;
20014;SDS011;61787;42.022;23.078;2023-03-31T04:16:57;7.63;;;5.20;;
20014;SDS011;61787;42.022;23.078;2023-03-31T04:18:00;8.47;;;4.77;;
20014;SDS011;61787;42.022;23.078;2023-03-31T04:19:01;7.20;;;4.40;;
20014;SDS011;61787;42.022;23.078;2023-03-31T04:20:06;7.10;;;4.33;;
20014;SDS011;61787;42.022;23.078;2023-03-31T04:21:13;6.40;;;4.30;;
20014;SDS011;61787;42.022;23.078;2023-03-31T04:22:22;6.50;;;4.40;;
20014;SDS011;61787;42.022;23.078;2023-03-31T04:23:32;8.03;;;4.23;;
20014;SDS011;61787;42.022;23.078;2023-03-31T04:24:35;6.80;;;4.33;;
20014;SDS011;61787;42.022;23.078;2023-03-31T04:25:39;7.47;;;4.23;;
20014;SDS011;61787;42.022;23.078;2023-03-31T04:26:46;8.20;;;4.10;;
20014;SDS011;61787;42.022;23.078;2023-03-31T04:27:51;7.20;;;4.13;;
20014;SDS011;61787;42.022;23.078;2023-03-31T04:28:56;6.50;;;4.23;;
20014;SDS011;61787;42.022;23.078;2023-03-31T04:30:00;5.33;;;3.80;;
20014;SDS011;61787;42.022;23.078;2023-03-31T04:31:02;4.93;;;3.80;;
20014;SDS011;61787;42.022;23.078;2023-03-31T04:32:06;6.30;;;4.17;;
20014;SDS011;61787;42.022;23.078;2023-03-31T04:33:08;5.30;;;3.83;;
20014;SDS011;61787;42.022;23.078;2023-03-31T04:34:10;6.17;;;4.07;;
20014;SDS011;61787;42.022;23.078;2023-03-31T04:35:14;5.43;;;4.07;;
20014;SDS011;61787;42.022;23.078;2023-03-31T04:36:15;8.10;;;4.30;;
20014;SDS011;61787;42.022;23.078;2023-03-31T04:37:20;6.53;;;4.00;;
20014;SDS011;61787;42.022;23.078;2023-03-31T04:38:22;6.07;;;4.07;;
20014;SDS011;61787;42.022;23.078;2023-03-31T04:39:28;8.07;;;4.67;;
20014;SDS011;61787;42.022;23.078;2023-03-31T04:40:34;8.70;;;4.90;;
20014;SDS011;61787;42.022;23.078;2023-03-31T04:41:36;7.50;;;5.40;;
20014;SDS011;61787;42.022;23.078;2023-03-31T04:42:39;7.00;;;5.37;;
20014;SDS011;61787;42.022;23.078;2023-03-31T04:43:41;9.73;;;5.97;;
20014;SDS011;61787;42.022;23.078;2023-03-31T04:44:43;11.77;;;7.27;;
20014;SDS011;61787;42.022;23.078;2023-03-31T04:45:46;10.03;;;6.67;;
20014;SDS011;61787;42.022;23.078;2023-03-31T04:46:48;10.73;;;7.43;;
20014;SDS011;61787;42.022;23.078;2023-03-31T04:47:49;9.73;;;6.90;;
20014;SDS011;61787;42.022;23.078;2023-03-31T04:48:51;11.67;;;7.90;;
20014;SDS011;61787;42.022;23.078;2023-03-31T04:49:52;10.20;;;7.03;;
20014;SDS011;61787;42.022;23.078;2023-03-31T04:50:54;10.20;;;6.90;;
20014;SDS011;61787;42.022;23.078;2023-03-31T04:51:56;9.93;;;6.60;;
20014;SDS011;61787;42.022;23.078;2023-03-31T04:52:57;14.20;;;8.97;;
20014;SDS011;61787;42.022;23.078;2023-03-31T04:53:59;10.80;;;7.53;;
20014;SDS011;61787;42.022;23.078;2023-03-31T04:55:01;10.10;;;7.53;;
20014;SDS011;61787;42.022;23.078;2023-03-31T04:56:02;10.37;;;6.50;;
20014;SDS011;61787;42.022;23.078;2023-03-31T04:57:04;7.83;;;5.77;;
20014;SDS011;61787;42.022;23.078;2023-03-31T04:58:06;7.87;;;5.50;;
20014;SDS011;61787;42.022;23.078;2023-03-31T04:59:08;8.47;;;5.27;;
20014;SDS011;61787;42.022;23.078;2023-03-31T05:00:09;5.30;;;4.30;;
20014;SDS011;61787;42.022;23.078;2023-03-31T05:01:11;8.30;;;5.20;;
20014;SDS011;61787;42.022;23.078;2023-03-31T05:02:14;7.87;;;5.43;;
20014;SDS011;61787;42.022;23.078;2023-03-31T05:03:25;9.33;;;5.33;;
20014;SDS011;61787;42.022;23.078;2023-03-31T05:04:27;5.43;;;3.93;;
20014;SDS011;61787;42.022;23.078;2023-03-31T05:05:29;5.60;;;3.80;;
20014;SDS011;61787;42.022;23.078;2023-03-31T05:06:30;7.10;;;4.17;;
20014;SDS011;61787;42.022;23.078;2023-03-31T05:07:32;5.70;;;3.50;;
20014;SDS011;61787;42.022;23.078;2023-03-31T05:08:34;6.60;;;3.83;;
20014;SDS011;61787;42.022;23.078;2023-03-31T05:09:36;5.27;;;4.40;;
20014;SDS011;61787;42.022;23.078;2023-03-31T05:10:37;7.13;;;4.20;;
20014;SDS011;61787;42.022;23.078;2023-03-31T05:11:39;6.30;;;3.80;;
20014;SDS011;61787;42.022;23.078;2023-03-31T05:12:41;6.60;;;4.33;;
20014;SDS011;61787;42.022;23.078;2023-03-31T05:13:42;8.20;;;4.70;;
20014;SDS011;61787;42.022;23.078;2023-03-31T05:14:44;9.63;;;4.80;;
20014;SDS011;61787;42.022;23.078;2023-03-31T05:15:45;7.83;;;4.40;;
20014;SDS011;61787;42.022;23.078;2023-03-31T05:16:50;12.50;;;4.60;;
20014;SDS011;61787;42.022;23.078;2023-03-31T05:17:52;7.57;;;4.93;;
20014;SDS011;61787;42.022;23.078;2023-03-31T05:18:54;13.70;;;5.80;;
20014;SDS011;61787;42.022;23.078;2023-03-31T05:19:55;5.73;;;3.90;;
20014;SDS011;61787;42.022;23.078;2023-03-31T05:21:06;6.37;;;4.37;;
20014;SDS011;61787;42.022;23.078;2023-03-31T05:22:12;14.17;;;4.90;;
20014;SDS011;61787;42.022;23.078;2023-03-31T05:23:13;10.53;;;5.90;;
20014;SDS011;61787;42.022;23.078;2023-03-31T05:24:16;12.83;;;5.40;;
20014;SDS011;61787;42.022;23.078;2023-03-31T05:25:18;6.87;;;5.20;;
20014;SDS011;61787;42.022;23.078;2023-03-31T05:26:19;12.97;;;5.93;;
20014;SDS011;61787;42.022;23.078;2023-03-31T05:27:23;13.53;;;5.87;;
20014;SDS011;61787;42.022;23.078;2023-03-31T05:28:24;7.33;;;4.70;;
20014;SDS011;61787;42.022;23.078;2023-03-31T05:29:26;10.57;;;5.70;;
20014;SDS011;61787;42.022;23.078;2023-03-31T05:30:27;8.80;;;5.60;;
20014;SDS011;61787;42.022;23.078;2023-03-31T05:31:30;9.50;;;5.87;;
20014;SDS011;61787;42.022;23.078;2023-03-31T05:32:31;9.57;;;6.67;;
20014;SDS011;61787;42.022;23.078;2023-03-31T05:33:33;11.97;;;7.00;;
20014;SDS011;61787;42.022;23.078;2023-03-31T05:34:40;12.20;;;6.13;;
20014;SDS011;61787;42.022;23.078;2023-03-31T05:35:43;13.33;;;5.77;;
20014;SDS011;61787;42.022;23.078;2023-03-31T05:36:45;14.63;;;7.90;;
20014;SDS011;61787;42.022;23.078;2023-03-31T05:37:48;22.63;;;9.30;;
20014;SDS011;61787;42.022;23.078;2023-03-31T05:38:49;28.67;;;12.43;;
20014;SDS011;61787;42.022;23.078;2023-03-31T05:39:52;15.40;;;7.70;;
20014;SDS011;61787;42.022;23.078;2023-03-31T05:40:54;13.53;;;7.07;;
20014;SDS011;61787;42.022;23.078;2023-03-31T05:41:56;14.83;;;7.30;;
20014;SDS011;61787;42.022;23.078;2023-03-31T05:42:57;27.77;;;11.87;;
20014;SDS011;61787;42.022;23.078;2023-03-31T05:43:59;51.07;;;13.90;;
20014;SDS011;61787;42.022;23.078;2023-03-31T05:45:02;21.17;;;8.47;;
20014;SDS011;61787;42.022;23.078;2023-03-31T05:46:07;20.17;;;8.23;;
20014;SDS011;61787;42.022;23.078;2023-03-31T05:47:09;15.93;;;6.73;;
20014;SDS011;61787;42.022;23.078;2023-03-31T05:48:11;15.57;;;7.23;;
20014;SDS011;61787;42.022;23.078;2023-03-31T05:49:13;14.53;;;8.20;;
20014;SDS011;61787;42.022;23.078;2023-03-31T05:50:16;16.37;;;9.10;;
20014;SDS011;61787;42.022;23.078;2023-03-31T05:51:18;24.03;;;10.57;;
20014;SDS011;61787;42.022;23.078;2023-03-31T05:52:19;21.00;;;10.73;;
20014;SDS011;61787;42.022;23.078;2023-03-31T05:53:21;35.07;;;11.50;;
20014;SDS011;61787;42.022;23.078;2023-03-31T05:54:23;23.20;;;10.70;;
20014;SDS011;61787;42.022;23.078;2023-03-31T05:55:24;17.63;;;10.77;;
20014;SDS011;61787;42.022;23.078;2023-03-31T05:56:26;23.13;;;10.30;;
20014;SDS011;61787;42.022;23.078;2023-03-31T05:57:27;19.13;;;10.47;;
20014;SDS011;61787;42.022;23.078;2023-03-31T05:58:29;12.80;;;7.80;;
20014;SDS011;61787;42.022;23.078;2023-03-31T05:59:31;15.83;;;6.97;;
20014;SDS011;61787;42.022;23.078;2023-03-31T06:00:35;12.90;;;7.20;;
20014;SDS011;61787;42.022;23.078;2023-03-31T06:01:38;13.57;;;7.03;;
20014;SDS011;61787;42.022;23.078;2023-03-31T06:02:39;13.80;;;7.40;;
20014;SDS011;61787;42.022;23.078;2023-03-31T06:03:42;13.30;;;7.30;;
20014;SDS011;61787;42.022;23.078;2023-03-31T06:04:44;13.30;;;7.60;;
20014;SDS011;61787;42.022;23.078;2023-03-31T06:05:46;14.77;;;7.97;;
20014;SDS011;61787;42.022;23.078;2023-03-31T06:06:50;11.73;;;7.40;;
20014;SDS011;61787;42.022;23.078;2023-03-31T06:07:52;13.23;;;6.87;;
20014;SDS011;61787;42.022;23.078;2023-03-31T06:08:54;13.00;;;6.47;;
20014;SDS011;61787;42.022;23.078;2023-03-31T06:09:55;13.37;;;5.80;;
20014;SDS011;61787;42.022;23.078;2023-03-31T06:10:57;9.83;;;4.93;;
20014;SDS011;61787;42.022;23.078;2023-03-31T06:11:58;10.27;;;5.23;;
20014;SDS011;61787;42.022;23.078;2023-03-31T06:13:00;10.67;;;5.03;;
20014;SDS011;61787;42.022;23.078;2023-03-31T06:14:02;13.80;;;5.37;;
20014;SDS011;61787;42.022;23.078;2023-03-31T06:15:03;10.03;;;5.00;;
20014;SDS011;61787;42.022;23.078;2023-03-31T06:16:06;8.70;;;3.87;;
20014;SDS011;61787;42.022;23.078;2023-03-31T06:17:08;7.57;;;4.10;;
20014;SDS011;61787;42.022;23.078;2023-03-31T06:18:09;10.13;;;4.33;;
20014;SDS011;61787;42.022;23.078;2023-03-31T06:19:11;6.30;;;3.73;;
20014;SDS011;61787;42.022;23.078;2023-03-31T06:20:12;5.70;;;3.97;;
20014;SDS011;61787;42.022;23.078;2023-03-31T06:21:27;7.90;;;4.00;;
20014;SDS011;61787;42.022;23.078;2023-03-31T06:22:30;6.63;;;3.97;;
20014;SDS011;61787;42.022;23.078;2023-03-31T06:23:32;6.80;;;3.93;;
20014;SDS011;61787;42.022;23.078;2023-03-31T06:24:34;5.80;;;4.07;;
20014;SDS011;61787;42.022;23.078;2023-03-31T06:25:39;5.40;;;4.00;;
20014;SDS011;61787;42.022;23.078;2023-03-31T06:26:51;6.63;;;4.23;;
20014;SDS011;61787;42.022;23.078;2023-03-31T06:27:54;7.73;;;4.40;;
20014;SDS011;61787;42.022;23.078;2023-03-31T06:28:56;6.60;;;4.10;;
20014;SDS011;61787;42.022;23.078;2023-03-31T06:29:59;5.73;;;4.20;;
20014;SDS011;61787;42.022;23.078;2023-03-31T06:31:07;6.57;;;3.30;;
20014;SDS011;61787;42.022;23.078;2023-03-31T06:32:12;6.50;;;3.70;;
20014;SDS011;61787;42.022;23.078;2023-03-31T06:33:14;8.13;;;4.00;;
20014;SDS011;61787;42.022;23.078;2023-03-31T06:34:16;5.80;;;3.10;;
20014;SDS011;61787;42.022;23.078;2023-03-31T06:35:20;6.87;;;3.27;;
20014;SDS011;61787;42.022;23.078;2023-03-31T06:36:22;7.60;;;3.30;;
20014;SDS011;61787;42.022;23.078;2023-03-31T06:37:24;4.63;;;3.00;;
20014;SDS011;61787;42.022;23.078;2023-03-31T06:38:26;5.10;;;3.60;;
20014;SDS011;61787;42.022;23.078;2023-03-31T06:39:28;11.43;;;3.93;;
20014;SDS011;61787;42.022;23.078;2023-03-31T06:40:30;6.33;;;3.70;;
20014;SDS011;61787;42.022;23.078;2023-03-31T06:41:31;7.13;;;3.60;;
20014;SDS011;61787;42.022;23.078;2023-03-31T06:42:33;5.47;;;3.90;;
20014;SDS011;61787;42.022;23.078;2023-03-31T06:43:35;5.83;;;3.93;;
20014;SDS011;61787;42.022;23.078;2023-03-31T06:44:36;8.77;;;3.77;;
20014;SDS011;61787;42.022;23.078;2023-03-31T06:45:38;6.60;;;4.27;;
20014;SDS011;61787;42.022;23.078;2023-03-31T06:46:40;8.73;;;3.97;;
20014;SDS011;61787;42.022;23.078;2023-03-31T06:47:41;8.47;;;4.40;;
20014;SDS011;61787;42.022;23.078;2023-03-31T06:48:43;5.07;;;3.77;;
20014;SDS011;61787;42.022;23.078;2023-03-31T06:49:45;5.70;;;4.20;;
20014;SDS011;61787;42.022;23.078;2023-03-31T06:50:46;6.00;;;4.30;;
20014;SDS011;61787;42.022;23.078;2023-03-31T06:51:48;7.77;;;3.77;;
20014;SDS011;61787;42.022;23.078;2023-03-31T06:52:49;7.90;;;4.30;;
20014;SDS011;61787;42.022;23.078;2023-03-31T06:53:53;9.60;;;4.10;;
20014;SDS011;61787;42.022;23.078;2023-03-31T06:54:54;9.67;;;4.47;;
20014;SDS011;61787;42.022;23.078;2023-03-31T06:55:56;11.77;;;4.40;;
20014;SDS011;61787;42.022;23.078;2023-03-31T06:56:58;10.57;;;4.80;;
20014;SDS011;61787;42.022;23.078;2023-03-31T06:58:00;10.17;;;3.83;;
20014;SDS011;61787;42.022;23.078;2023-03-31T06:59:02;7.27;;;4.27;;
20014;SDS011;61787;42.022;23.078;2023-03-31T07:00:03;7.90;;;3.50;;
20014;SDS011;61787;42.022;23.078;2023-03-31T07:01:06;4.47;;;3.27;;
20014;SDS011;61787;42.022;23.078;2023-03-31T07:02:09;5.90;;;3.60;;
20014;SDS011;61787;42.022;23.078;2023-03-31T07:03:11;10.23;;;4.20;;
20014;SDS011;61787;42.022;23.078;2023-03-31T07:04:14;5.57;;;3.93;;
20014;SDS011;61787;42.022;23.078;2023-03-31T07:05:15;6.73;;;3.60;;
20014;SDS011;61787;42.022;23.078;2023-03-31T07:06:18;10.00;;;4.17;;
20014;SDS011;61787;42.022;23.078;2023-03-31T07:07:20;8.23;;;4.20;;
20014;SDS011;61787;42.022;23.078;2023-03-31T07:08:22;11.23;;;5.77;;
20014;SDS011;61787;42.022;23.078;2023-03-31T07:09:24;9.67;;;4.73;;